createdAt,value
2019-05-29T00:00:00.870Z,100438.20
2019-05-29T00:02:46.937Z,100447.39
2019-05-29T00:05:33.015Z,100450.61
2019-05-29T00:08:19.122Z,100451.80
2019-05-29T00:11:06.331Z,100456.66
2019-05-29T00:13:52.565Z,100456.87
2019-05-29T00:16:38.693Z,100453.14
2019-05-29T00:19:24.891Z,100465.66
2019-05-29T00:22:10.980Z,100458.72
2019-05-29T00:24:57.299Z,100465.27
2019-05-29T00:27:43.250Z,100466.55
2019-05-29T00:30:29.588Z,100472.73
2019-05-29T00:33:15.640Z,100475.73
2019-05-29T00:36:01.816Z,100476.94
2019-05-29T00:38:47.965Z,100480.97
2019-05-29T00:41:34.133Z,100482.21
2019-05-29T00:44:33.529Z,100483.11
2019-05-29T00:47:09.445Z,100487.52
2019-05-29T00:49:55.855Z,100491.68
2019-05-29T00:52:41.964Z,100491.39
2019-05-29T00:55:28.234Z,100496.18
2019-05-29T00:58:14.907Z,100492.34
2019-05-29T01:01:01.267Z,100507.03
2019-05-29T01:03:47.555Z,100506.86
2019-05-29T01:06:33.683Z,100508.43
2019-05-29T01:09:20.780Z,100514.94
2019-05-29T01:12:07.021Z,100521.23
2019-05-29T01:14:53.150Z,100528.73
2019-05-29T01:17:39.251Z,100526.41
2019-05-29T01:20:25.460Z,100530.39
2019-05-29T01:23:12.126Z,100536.59
2019-05-29T01:25:58.490Z,100537.80
2019-05-29T01:28:44.516Z,100536.34
2019-05-29T01:31:30.770Z,100543.10
2019-05-29T01:34:17.633Z,100545.93
2019-05-29T01:37:03.707Z,100545.67
2019-05-29T01:39:50.016Z,100542.09
2019-05-29T01:42:36.150Z,100551.47
2019-05-29T01:45:22.249Z,100558.66
2019-05-29T01:48:09.545Z,100556.94
2019-05-29T01:50:55.735Z,100553.36
2019-05-29T01:53:41.785Z,100565.77
2019-05-29T01:56:28.092Z,100564.88
2019-05-29T01:59:14.030Z,100567.22
2019-05-29T02:02:00.143Z,100567.98
2019-05-29T02:04:46.170Z,100565.22
2019-05-29T02:07:32.276Z,100569.98
2019-05-29T02:10:18.440Z,100577.52
2019-05-29T02:13:04.670Z,100578.01
2019-05-29T02:15:50.855Z,100586.80
2019-05-29T02:18:37.113Z,100583.16
2019-05-29T02:21:24.159Z,100583.65
2019-05-29T02:24:10.231Z,100586.46
2019-05-29T02:26:56.395Z,100587.13
2019-05-29T02:29:42.480Z,100593.11
2019-05-29T02:32:28.637Z,100592.92
2019-05-29T02:35:14.941Z,100606.30
2019-05-29T02:38:00.905Z,100616.27
2019-05-29T02:40:47.055Z,100608.73
2019-05-29T02:43:33.457Z,100611.25
2019-05-29T02:46:20.031Z,100607.33
2019-05-29T02:49:07.795Z,100611.16
2019-05-29T02:51:54.217Z,100621.41
2019-05-29T02:54:40.147Z,100612.93
2019-05-29T02:57:26.917Z,100624.04
2019-05-29T03:00:14.251Z,100618.61
2019-05-29T03:03:00.173Z,100619.17
2019-05-29T03:05:46.366Z,100627.39
2019-05-29T03:08:34.353Z,100625.88
2019-05-29T03:11:20.635Z,100631.21
2019-05-29T03:14:06.731Z,100628.41
2019-05-29T03:16:53.275Z,100631.67
2019-05-29T03:19:39.092Z,100637.73
2019-05-29T03:22:26.296Z,100643.69
2019-05-29T03:25:12.582Z,100650.16
2019-05-29T03:27:58.826Z,100650.54
2019-05-29T03:30:46.062Z,100657.70
2019-05-29T03:33:43.558Z,100657.16
2019-05-29T03:36:21.264Z,100663.25
2019-05-29T03:39:07.341Z,100657.69
2019-05-29T03:41:53.543Z,100660.55
2019-05-29T03:44:39.632Z,100662.73
2019-05-29T03:47:26.933Z,100667.46
2019-05-29T03:50:15.789Z,100674.33
2019-05-29T03:53:01.623Z,100668.25
2019-05-29T03:55:47.727Z,100672.95
2019-05-29T03:58:35.117Z,100672.86
2019-05-29T04:01:22.121Z,100667.59
2019-05-29T04:04:08.232Z,100671.41
2019-05-29T04:06:54.625Z,100677.63
2019-05-29T04:09:40.645Z,100678.08
2019-05-29T04:12:27.022Z,100678.43
2019-05-29T04:15:14.937Z,100674.99
2019-05-29T04:18:03.044Z,100677.92
2019-05-29T04:20:51.108Z,100689.45
2019-05-29T04:23:38.272Z,100676.67
2019-05-29T04:26:25.012Z,100684.85
2019-05-29T04:29:10.881Z,100703.88
2019-05-29T04:31:57.052Z,100688.54
2019-05-29T04:34:43.357Z,100692.74
2019-05-29T04:37:30.304Z,100715.58
2019-05-29T04:40:16.645Z,100703.06
2019-05-29T04:43:02.724Z,100694.17
2019-05-29T04:45:48.650Z,100700.69
2019-05-29T04:48:36.237Z,100697.48
2019-05-29T04:51:23.228Z,100706.71
2019-05-29T04:54:09.360Z,100728.87
2019-05-29T04:56:55.543Z,100721.59
2019-05-29T04:59:41.687Z,100716.58
2019-05-29T05:02:28.835Z,100723.20
2019-05-29T05:05:15.420Z,100717.09
2019-05-29T05:08:01.585Z,100727.22
2019-05-29T05:10:47.675Z,100716.58
2019-05-29T05:13:34.076Z,100728.03
2019-05-29T05:16:20.173Z,100717.70
2019-05-29T05:19:06.412Z,100702.58
2019-05-29T05:21:52.580Z,100717.16
2019-05-29T05:24:43.497Z,100729.27
2019-05-29T05:27:26.788Z,100724.39
2019-05-29T05:30:12.971Z,100732.52
2019-05-29T05:32:59.074Z,100735.63
2019-05-29T05:35:45.255Z,100743.67
2019-05-29T05:38:32.823Z,100722.72
2019-05-29T05:41:18.948Z,100741.70
2019-05-29T05:44:05.143Z,100741.35
2019-05-29T05:46:51.156Z,100729.80
2019-05-29T05:49:37.423Z,100735.76
2019-05-29T05:52:25.616Z,100746.50
2019-05-29T05:55:12.286Z,100763.81
2019-05-29T05:57:58.612Z,100761.93
2019-05-29T06:00:44.822Z,100753.62
2019-05-29T06:03:31.836Z,100752.08
2019-05-29T06:06:18.242Z,100761.59
2019-05-29T06:09:06.322Z,100763.04
2019-05-29T06:11:52.428Z,100763.53
2019-05-29T06:14:38.660Z,100773.78
2019-05-29T06:17:24.836Z,100764.91
2019-05-29T06:20:11.363Z,100787.58
2019-05-29T06:22:57.222Z,100784.48
2019-05-29T06:25:43.930Z,100771.34
2019-05-29T06:28:30.076Z,100765.61
2019-05-29T06:31:16.250Z,100776.16
2019-05-29T06:34:02.565Z,100777.08
2019-05-29T06:36:48.678Z,100796.14
2019-05-29T06:39:35.558Z,100799.91
2019-05-29T06:42:21.911Z,100816.94
2019-05-29T06:45:08.957Z,100830.56
2019-05-29T06:47:55.602Z,100812.68
2019-05-29T06:50:43.432Z,100820.84
2019-05-29T06:53:29.960Z,100803.77
2019-05-29T06:56:16.803Z,100833.48
2019-05-29T06:59:04.061Z,100833.56
2019-05-29T07:01:50.074Z,100826.54
2019-05-29T07:04:36.289Z,100834.73
2019-05-29T07:07:22.416Z,100822.30
2019-05-29T07:10:08.643Z,100828.12
2019-05-29T07:12:54.662Z,100816.69
2019-05-29T07:15:40.998Z,100820.81
2019-05-29T07:18:27.289Z,100836.87
2019-05-29T07:21:13.542Z,100836.95
2019-05-29T07:23:59.875Z,100850.46
2019-05-29T07:26:47.237Z,100829.86
2019-05-29T07:29:33.661Z,100843.55
2019-05-29T07:32:19.894Z,100851.94
2019-05-29T07:35:06.520Z,100854.35
2019-05-29T07:37:52.596Z,100855.08
2019-05-29T07:40:40.496Z,100875.39
2019-05-29T07:43:26.907Z,100880.19
2019-05-29T07:46:13.121Z,100855.42
2019-05-29T07:48:59.753Z,100857.13
2019-05-29T07:51:47.010Z,100867.11
2019-05-29T07:54:33.585Z,100859.61
2019-05-29T07:57:19.841Z,100858.31
2019-05-29T08:00:06.495Z,100868.69
2019-05-29T08:02:52.568Z,100865.53
2019-05-29T08:05:41.463Z,100872.56
2019-05-29T08:08:29.108Z,100872.56
2019-05-29T08:11:15.138Z,100900.70
2019-05-29T08:14:01.323Z,100889.88
2019-05-29T08:16:48.087Z,100876.22
2019-05-29T08:19:34.656Z,100865.56
2019-05-29T08:22:33.782Z,100865.56
2019-05-29T08:25:09.520Z,100883.21
2019-05-29T08:27:55.651Z,100865.91
2019-05-29T08:30:47.369Z,100878.25
2019-05-29T08:33:30.346Z,100875.88
2019-05-29T08:36:16.791Z,100878.50
2019-05-29T08:39:05.015Z,100890.64
2019-05-29T08:42:17.754Z,100910.28
2019-05-29T08:44:39.260Z,100913.86
2019-05-29T08:47:25.381Z,100897.23
2019-05-29T08:50:18.742Z,100907.53
2019-05-29T08:53:02.492Z,100916.56
2019-05-29T08:55:48.976Z,100910.86
2019-05-29T08:58:37.317Z,100891.53
2019-05-29T09:01:23.855Z,100891.53
2019-05-29T09:04:09.882Z,100866.42
2019-05-29T09:06:56.023Z,100873.28
2019-05-29T09:09:42.914Z,100886.28
2019-05-29T09:12:30.103Z,100875.62
2019-05-29T09:15:21.060Z,100897.32
2019-05-29T09:18:05.226Z,100890.33
2019-05-29T09:21:02.869Z,100904.91
2019-05-29T09:23:40.386Z,100903.30
2019-05-29T09:26:26.896Z,100902.09
2019-05-29T09:29:17.756Z,100906.26
2019-05-29T09:32:01.471Z,100916.49
2019-05-29T09:34:47.803Z,100921.98
2019-05-29T09:37:34.430Z,100908.13
2019-05-29T09:40:20.992Z,100925.88
2019-05-29T09:43:07.257Z,100918.14
2019-05-29T09:45:53.451Z,100909.62
2019-05-29T09:48:49.113Z,100900.36
2019-05-29T09:51:27.821Z,100898.20
2019-05-29T09:54:14.030Z,100916.74
2019-05-29T09:57:01.113Z,100926.33
2019-05-29T09:59:47.541Z,100923.86
2019-05-29T10:02:33.897Z,100914.19
2019-05-29T10:05:19.994Z,100913.52
2019-05-29T10:08:06.337Z,100909.95
2019-05-29T10:11:02.707Z,100922.03
2019-05-29T10:13:41.110Z,100927.63
2019-05-29T10:16:27.249Z,100937.97
2019-05-29T10:19:13.846Z,100933.52
2019-05-29T10:22:02.016Z,100921.48
2019-05-29T10:24:48.416Z,100929.81
2019-05-29T10:27:34.561Z,100924.56
2019-05-29T10:30:20.745Z,100926.85
2019-05-29T10:33:06.738Z,100920.22
2019-05-29T10:35:55.368Z,100914.45
2019-05-29T10:38:42.360Z,100916.98
2019-05-29T10:41:28.653Z,100927.08
2019-05-29T10:44:14.908Z,100937.05
2019-05-29T10:47:02.068Z,100943.08
2019-05-29T10:49:49.753Z,100954.28
2019-05-29T10:52:36.052Z,100927.16
2019-05-29T10:55:22.917Z,100921.06
2019-05-29T10:58:09.079Z,100904.58
2019-05-29T11:00:55.645Z,100919.03
2019-05-29T11:03:41.944Z,100924.53
2019-05-29T11:06:27.946Z,100934.58
2019-05-29T11:09:14.184Z,100915.91
2019-05-29T11:12:00.569Z,100927.38
2019-05-29T11:14:46.574Z,100928.53
2019-05-29T11:17:32.682Z,100930.23
2019-05-29T11:20:19.026Z,100923.70
2019-05-29T11:23:05.056Z,100925.23
2019-05-29T11:25:52.080Z,100915.77
2019-05-29T11:28:38.416Z,100905.18
2019-05-29T11:31:24.716Z,100905.34
2019-05-29T11:34:10.832Z,100921.58
2019-05-29T11:36:56.925Z,100928.11
2019-05-29T11:39:43.192Z,100927.45
2019-05-29T11:42:29.227Z,100920.25
2019-05-29T11:45:15.741Z,100919.94
2019-05-29T11:48:05.306Z,100916.10
2019-05-29T11:50:52.137Z,100931.02
2019-05-29T11:53:38.666Z,100925.41
2019-05-29T11:56:24.633Z,100909.24
2019-05-29T11:59:10.911Z,100915.28
2019-05-29T12:01:58.584Z,100905.16
2019-05-29T12:04:55.472Z,100896.88
2019-05-29T12:07:41.718Z,100911.19
2019-05-29T12:10:27.821Z,100932.78
2019-05-29T12:13:14.050Z,100912.53
2019-05-29T12:16:02.622Z,100918.25
2019-05-29T12:18:48.991Z,100919.72
2019-05-29T12:21:35.651Z,100915.55
2019-05-29T12:24:21.914Z,100920.51
2019-05-29T12:27:08.078Z,100907.31
2019-05-29T12:29:54.675Z,100909.98
2019-05-29T12:32:40.648Z,100906.03
2019-05-29T12:35:26.770Z,100895.23
2019-05-29T12:38:12.810Z,100896.25
2019-05-29T12:40:59.812Z,100898.70
2019-05-29T12:43:46.217Z,100904.77
2019-05-29T12:46:32.149Z,100907.20
2019-05-29T12:49:18.674Z,100904.55
2019-05-29T12:52:07.660Z,100898.08
2019-05-29T12:54:53.847Z,100886.36
2019-05-29T12:57:40.009Z,100897.64
2019-05-29T13:00:26.219Z,100897.03
2019-05-29T13:03:13.821Z,100904.84
2019-05-29T13:06:00.531Z,100886.41
2019-05-29T13:08:46.869Z,100896.28
2019-05-29T13:11:32.889Z,100897.05
2019-05-29T13:14:22.089Z,100904.86
2019-05-29T13:17:08.663Z,100893.86
2019-05-29T13:19:59.545Z,100886.92
2019-05-29T13:22:43.051Z,100893.22
2019-05-29T13:25:29.309Z,100887.53
2019-05-29T13:28:15.570Z,100884.58
2019-05-29T13:31:02.003Z,100903.81
2019-05-29T13:33:49.098Z,100897.29
2019-05-29T13:36:35.411Z,100887.86
2019-05-29T13:39:21.489Z,100895.86
2019-05-29T13:42:11.815Z,100901.44
2019-05-29T13:44:59.085Z,100898.86
2019-05-29T13:47:44.230Z,100896.31
2019-05-29T13:50:30.808Z,100897.02
2019-05-29T13:53:16.980Z,100893.39
2019-05-29T13:56:04.281Z,100878.25
2019-05-29T13:58:50.929Z,100874.40
2019-05-29T14:01:37.531Z,100889.80
2019-05-29T14:04:23.769Z,100883.49
2019-05-29T14:07:10.249Z,100880.13
2019-05-29T14:09:56.569Z,100894.45
2019-05-29T14:12:42.649Z,100893.92
2019-05-29T14:15:28.945Z,100915.51
2019-05-29T14:18:15.514Z,100878.58
2019-05-29T14:21:03.006Z,100883.50
2019-05-29T14:23:49.789Z,100880.64
2019-05-29T14:26:36.210Z,100879.27
2019-05-29T14:29:22.351Z,100885.73
2019-05-29T14:32:09.549Z,100879.18
2019-05-29T14:34:55.809Z,100887.71
2019-05-29T14:37:41.829Z,100878.39
2019-05-29T14:40:27.954Z,100877.30
2019-05-29T14:43:15.637Z,100875.46
2019-05-29T14:46:02.054Z,100878.72
2019-05-29T14:48:58.973Z,100885.63
2019-05-29T14:51:45.229Z,100886.80
2019-05-29T14:54:41.368Z,100894.19
2019-05-29T14:57:26.017Z,100883.33
2019-05-29T15:00:20.982Z,100883.22
2019-05-29T15:02:59.248Z,100887.61
2019-05-29T15:05:46.751Z,100883.12
2019-05-29T15:08:34.291Z,100884.91
2019-05-29T15:11:20.308Z,100880.94
2019-05-29T15:14:06.528Z,100876.70
2019-05-29T15:16:53.075Z,100866.73
2019-05-29T15:19:40.290Z,100862.44
2019-05-29T15:22:26.568Z,100876.52
2019-05-29T15:25:22.969Z,100867.33
2019-05-29T15:28:01.531Z,100881.17
2019-05-29T15:30:47.994Z,100881.77
2019-05-29T15:33:34.471Z,100880.66
2019-05-29T15:36:20.669Z,100879.16
2019-05-29T15:39:08.514Z,100879.18
2019-05-29T15:41:55.029Z,100871.05
2019-05-29T15:44:41.310Z,100873.72
2019-05-29T15:47:27.398Z,100866.39
2019-05-29T15:50:16.209Z,100871.23
2019-05-29T15:53:02.968Z,100866.91
2019-05-29T15:55:49.128Z,100857.37
2019-05-29T15:58:35.352Z,100866.20
2019-05-29T16:01:22.651Z,100858.79
2019-05-29T16:04:09.623Z,100889.23
2019-05-29T16:06:56.072Z,100899.99
2019-05-29T16:09:42.368Z,100878.05
2019-05-29T16:12:31.053Z,100883.43
2019-05-29T16:15:17.562Z,100885.88
2019-05-29T16:18:05.167Z,100886.88
2019-05-29T16:20:52.027Z,100880.19
2019-05-29T16:23:38.082Z,100882.70
2019-05-29T16:26:24.281Z,100888.41
2019-05-29T16:29:10.511Z,100887.08
2019-05-29T16:31:56.612Z,100883.86
2019-05-29T16:34:43.046Z,100876.28
2019-05-29T16:37:29.107Z,100882.21
2019-05-29T16:40:18.267Z,100885.92
2019-05-29T16:43:04.380Z,100887.69
2019-05-29T16:45:50.676Z,100901.87
2019-05-29T16:48:36.800Z,100888.39
2019-05-29T16:51:23.181Z,100868.68
2019-05-29T16:54:09.026Z,100882.47
2019-05-29T16:56:55.498Z,100873.99
2019-05-29T16:59:42.892Z,100878.27
2019-05-29T17:02:29.033Z,100874.73
2019-05-29T17:05:15.760Z,100882.35
2019-05-29T17:08:02.350Z,100885.02
2019-05-29T17:10:49.477Z,100874.41
2019-05-29T17:13:35.562Z,100874.33
2019-05-29T17:16:22.627Z,100864.20
2019-05-29T17:19:09.007Z,100867.35
2019-05-29T17:21:55.136Z,100874.19
2019-05-29T17:24:41.562Z,100858.92
2019-05-29T17:27:27.361Z,100875.88
2019-05-29T17:30:17.131Z,100864.02
2019-05-29T17:33:03.536Z,100858.74
2019-05-29T17:35:49.855Z,100861.77
2019-05-29T17:38:36.084Z,100858.36
2019-05-29T17:41:23.257Z,100870.14
2019-05-29T17:44:09.546Z,100860.95
2019-05-29T17:46:57.059Z,100866.06
2019-05-29T17:49:43.304Z,100867.94
2019-05-29T17:52:29.494Z,100868.30
2019-05-29T17:55:19.086Z,100872.91
2019-05-29T17:58:04.946Z,100865.95
2019-05-29T18:00:51.475Z,100870.72
2019-05-29T18:03:37.581Z,100869.19
2019-05-29T18:06:24.562Z,100865.89
2019-05-29T18:09:10.887Z,100868.69
2019-05-29T18:11:56.974Z,100872.85
2019-05-29T18:14:43.154Z,100873.87
2019-05-29T18:17:29.346Z,100877.33
2019-05-29T18:20:17.922Z,100880.26
2019-05-29T18:23:04.322Z,100892.73
2019-05-29T18:25:50.196Z,100888.56
2019-05-29T18:28:36.250Z,100896.23
2019-05-29T18:31:22.809Z,100888.89
2019-05-29T18:34:08.546Z,100887.56
2019-05-29T18:36:54.865Z,100889.14
2019-05-29T18:39:41.200Z,100884.45
2019-05-29T18:42:29.073Z,100887.22
2019-05-29T18:45:20.798Z,100892.14
2019-05-29T18:48:04.971Z,100899.97
2019-05-29T18:50:50.839Z,100902.05
2019-05-29T18:53:36.836Z,100895.30
2019-05-29T18:56:24.002Z,100895.71
2019-05-29T18:59:10.085Z,100900.63
2019-05-29T19:01:56.324Z,100902.77
2019-05-29T19:04:42.658Z,100910.63
2019-05-29T19:07:29.750Z,100905.89
2019-05-29T19:10:16.518Z,100909.48
2019-05-29T19:13:03.129Z,100911.41
2019-05-29T19:15:49.245Z,100909.02
2019-05-29T19:18:35.524Z,100930.91
2019-05-29T19:21:22.314Z,100928.73
2019-05-29T19:24:08.902Z,100923.48
2019-05-29T19:26:54.977Z,100938.29
2019-05-29T19:29:41.016Z,100937.00
2019-05-29T19:32:27.395Z,100937.63
2019-05-29T19:35:13.986Z,100931.58
2019-05-29T19:38:00.086Z,100944.01
2019-05-29T19:40:46.243Z,100950.73
2019-05-29T19:43:32.470Z,100939.91
2019-05-29T19:46:21.447Z,100944.52
2019-05-29T19:49:07.791Z,100938.80
2019-05-29T19:51:53.832Z,100938.37
2019-05-29T19:54:40.195Z,100942.78
2019-05-29T19:57:28.118Z,100936.07
2019-05-29T20:00:23.057Z,100941.00
2019-05-29T20:03:09.295Z,100949.06
2019-05-29T20:06:10.027Z,100947.92
2019-05-29T20:08:58.420Z,100951.45
2019-05-29T20:11:45.155Z,100950.14
2019-05-29T20:14:40.256Z,100956.47
2019-05-29T20:17:27.951Z,100969.60
2019-05-29T20:20:15.381Z,100966.02
2019-05-29T20:23:05.666Z,100970.21
2019-05-29T20:25:52.263Z,100978.03
2019-05-29T20:28:39.466Z,100972.18
2019-05-29T20:31:25.601Z,100974.77
2019-05-29T20:34:11.640Z,100985.17
2019-05-29T20:36:57.895Z,100985.19
2019-05-29T20:39:45.041Z,100973.94
2019-05-29T20:42:32.134Z,100976.01
2019-05-29T20:45:18.599Z,100973.14
2019-05-29T20:48:07.620Z,100958.72
2019-05-29T20:50:53.691Z,100961.97
2019-05-29T20:53:40.362Z,100963.78
2019-05-29T20:56:27.675Z,100971.59
2019-05-29T20:59:13.920Z,100974.80
2019-05-29T21:01:59.836Z,100963.59
2019-05-29T21:04:48.072Z,100966.01
2019-05-29T21:07:34.614Z,100968.69
2019-05-29T21:10:25.266Z,100970.45
2019-05-29T21:13:12.562Z,100973.14
2019-05-29T21:15:59.413Z,100976.16
2019-05-29T21:18:45.885Z,100992.63
2019-05-29T21:21:32.162Z,100973.77
2019-05-29T21:24:20.032Z,100981.34
2019-05-29T21:27:06.007Z,100975.10
2019-05-29T21:29:52.315Z,100981.47
2019-05-29T21:32:40.188Z,100972.25
2019-05-29T21:35:26.503Z,100970.47
2019-05-29T21:38:14.956Z,100974.35
2019-05-29T21:41:01.005Z,100981.23
2019-05-29T21:43:47.246Z,100981.20
2019-05-29T21:46:32.936Z,100982.30
2019-05-29T21:49:19.397Z,100979.75
2019-05-29T21:52:05.511Z,100983.77
2019-05-29T21:54:51.551Z,100979.19
2019-05-29T21:57:41.304Z,100981.36
2019-05-29T22:00:35.038Z,100973.92
2019-05-29T22:03:21.447Z,100978.83
2019-05-29T22:06:09.019Z,100972.72
2019-05-29T22:08:55.030Z,100968.67
2019-05-29T22:11:41.761Z,100970.34
2019-05-29T22:14:27.907Z,100975.03
2019-05-29T22:17:13.997Z,100961.88
2019-05-29T22:20:02.454Z,100965.83
2019-05-29T22:22:48.962Z,100974.58
2019-05-29T22:25:35.061Z,100977.05
2019-05-29T22:28:21.243Z,100966.02
2019-05-29T22:31:07.421Z,100960.67
2019-05-29T22:33:53.636Z,100965.11
2019-05-29T22:36:40.036Z,100937.23
2019-05-29T22:39:26.141Z,100916.56
2019-05-29T22:42:12.250Z,100914.93
2019-05-29T22:44:59.656Z,100908.19
2019-05-29T22:47:46.253Z,100898.83
2019-05-29T22:50:32.397Z,100901.31
2019-05-29T22:53:18.591Z,100899.99
2019-05-29T22:56:05.765Z,100904.08
2019-05-29T22:58:52.156Z,100903.91
2019-05-29T23:01:38.309Z,100906.77
2019-05-29T23:04:24.466Z,100899.21
2019-05-29T23:07:10.606Z,100896.47
2019-05-29T23:09:56.868Z,100900.53
2019-05-29T23:12:43.065Z,100896.07
2019-05-29T23:15:29.380Z,100895.58
2019-05-29T23:18:15.203Z,100896.91
2019-05-29T23:21:02.632Z,100901.48
2019-05-29T23:23:49.235Z,100896.78
2019-05-29T23:26:35.390Z,100900.59
2019-05-29T23:29:21.406Z,100896.62
2019-05-29T23:32:07.931Z,100877.61
2019-05-29T23:34:55.074Z,100890.05
2019-05-29T23:37:41.436Z,100888.78
2019-05-29T23:40:27.767Z,100889.89
2019-05-29T23:43:13.632Z,100879.16
2019-05-29T23:45:59.765Z,100877.22
2019-05-29T23:48:46.037Z,100875.19
2019-05-29T23:51:32.328Z,100865.80
2019-05-29T23:54:18.396Z,100861.67
2019-05-29T23:57:04.696Z,100860.84
